sensor_id;sensor_type;location;lat;lon;timestamp;P1;durP1;ratioP1;P2;durP2;ratioP2
4407;SDS011;2217;48.460;7.934;2022-11-20T00:01:03;2.07;;;1.00;;
4407;SDS011;2217;48.460;7.934;2022-11-20T00:03:30;2.00;;;0.90;;
4407;SDS011;2217;48.460;7.934;2022-11-20T00:05:59;2.10;;;0.90;;
4407;SDS011;2217;48.460;7.934;2022-11-20T00:08:26;2.03;;;0.90;;
4407;SDS011;2217;48.460;7.934;2022-11-20T00:10:54;2.00;;;0.90;;
4407;SDS011;2217;48.460;7.934;2022-11-20T00:13:22;2.00;;;0.90;;
4407;SDS011;2217;48.460;7.934;2022-11-20T00:15:56;2.07;;;0.90;;
4407;SDS011;2217;48.460;7.934;2022-11-20T00:18:23;2.10;;;0.90;;
4407;SDS011;2217;48.460;7.934;2022-11-20T00:20:50;2.07;;;0.90;;
4407;SDS011;2217;48.460;7.934;2022-11-20T00:23:18;2.00;;;0.90;;
4407;SDS011;2217;48.460;7.934;2022-11-20T00:25:45;2.00;;;0.80;;
4407;SDS011;2217;48.460;7.934;2022-11-20T00:28:14;2.07;;;0.90;;
4407;SDS011;2217;48.460;7.934;2022-11-20T00:30:41;2.10;;;0.90;;
4407;SDS011;2217;48.460;7.934;2022-11-20T00:33:08;2.00;;;0.90;;
4407;SDS011;2217;48.460;7.934;2022-11-20T00:35:35;2.07;;;0.90;;
4407;SDS011;2217;48.460;7.934;2022-11-20T00:38:02;2.10;;;0.90;;
4407;SDS011;2217;48.460;7.934;2022-11-20T00:40:30;2.10;;;0.90;;
4407;SDS011;2217;48.460;7.934;2022-11-20T00:42:57;2.03;;;0.90;;
4407;SDS011;2217;48.460;7.934;2022-11-20T00:45:25;2.00;;;0.90;;
4407;SDS011;2217;48.460;7.934;2022-11-20T00:47:53;2.00;;;0.90;;
4407;SDS011;2217;48.460;7.934;2022-11-20T00:50:20;2.10;;;0.90;;
4407;SDS011;2217;48.460;7.934;2022-11-20T00:52:47;2.03;;;0.90;;
4407;SDS011;2217;48.460;7.934;2022-11-20T00:55:14;2.10;;;0.90;;
4407;SDS011;2217;48.460;7.934;2022-11-20T00:57:41;2.10;;;0.90;;
4407;SDS011;2217;48.460;7.934;2022-11-20T01:00:09;2.00;;;0.83;;
4407;SDS011;2217;48.460;7.934;2022-11-20T01:02:37;2.10;;;0.90;;
4407;SDS011;2217;48.460;7.934;2022-11-20T01:05:05;2.10;;;0.90;;
4407;SDS011;2217;48.460;7.934;2022-11-20T01:07:32;2.10;;;1.00;;
4407;SDS011;2217;48.460;7.934;2022-11-20T01:09:59;2.07;;;0.90;;
4407;SDS011;2217;48.460;7.934;2022-11-20T01:12:26;2.10;;;0.90;;
4407;SDS011;2217;48.460;7.934;2022-11-20T01:14:53;2.10;;;0.90;;
4407;SDS011;2217;48.460;7.934;2022-11-20T01:17:20;2.07;;;0.90;;
4407;SDS011;2217;48.460;7.934;2022-11-20T01:19:49;2.07;;;0.90;;
4407;SDS011;2217;48.460;7.934;2022-11-20T01:22:16;2.07;;;0.90;;
4407;SDS011;2217;48.460;7.934;2022-11-20T01:24:44;2.10;;;0.90;;
4407;SDS011;2217;48.460;7.934;2022-11-20T01:27:11;2.10;;;0.90;;
4407;SDS011;2217;48.460;7.934;2022-11-20T01:29:38;2.10;;;1.00;;
4407;SDS011;2217;48.460;7.934;2022-11-20T01:32:05;2.10;;;0.90;;
4407;SDS011;2217;48.460;7.934;2022-11-20T01:34:32;2.10;;;1.00;;
4407;SDS011;2217;48.460;7.934;2022-11-20T01:37:01;2.10;;;0.90;;
4407;SDS011;2217;48.460;7.934;2022-11-20T01:39:28;2.10;;;0.90;;
4407;SDS011;2217;48.460;7.934;2022-11-20T01:41:55;2.10;;;0.90;;
4407;SDS011;2217;48.460;7.934;2022-11-20T01:44:46;2.10;;;0.90;;
4407;SDS011;2217;48.460;7.934;2022-11-20T01:47:16;2.10;;;0.90;;
4407;SDS011;2217;48.460;7.934;2022-11-20T01:49:45;2.10;;;1.00;;
4407;SDS011;2217;48.460;7.934;2022-11-20T01:52:15;2.10;;;0.90;;
4407;SDS011;2217;48.460;7.934;2022-11-20T01:54:43;2.10;;;0.90;;
4407;SDS011;2217;48.460;7.934;2022-11-20T01:57:12;2.10;;;0.90;;
4407;SDS011;2217;48.460;7.934;2022-11-20T01:59:41;2.10;;;0.90;;
4407;SDS011;2217;48.460;7.934;2022-11-20T02:02:10;2.10;;;0.90;;
4407;SDS011;2217;48.460;7.934;2022-11-20T02:04:37;2.10;;;0.90;;
4407;SDS011;2217;48.460;7.934;2022-11-20T02:07:06;2.10;;;0.90;;
4407;SDS011;2217;48.460;7.934;2022-11-20T02:09:34;2.10;;;0.90;;
4407;SDS011;2217;48.460;7.934;2022-11-20T02:12:02;2.10;;;0.90;;
4407;SDS011;2217;48.460;7.934;2022-11-20T02:14:30;2.10;;;0.90;;
4407;SDS011;2217;48.460;7.934;2022-11-20T02:16:56;2.10;;;0.90;;
4407;SDS011;2217;48.460;7.934;2022-11-20T02:19:24;2.10;;;0.90;;
4407;SDS011;2217;48.460;7.934;2022-11-20T02:21:55;2.10;;;0.90;;
4407;SDS011;2217;48.460;7.934;2022-11-20T02:24:25;2.10;;;0.90;;
4407;SDS011;2217;48.460;7.934;2022-11-20T02:26:53;2.10;;;0.90;;
4407;SDS011;2217;48.460;7.934;2022-11-20T02:29:23;2.10;;;0.90;;
4407;SDS011;2217;48.460;7.934;2022-11-20T02:31:51;2.10;;;0.90;;
4407;SDS011;2217;48.460;7.934;2022-11-20T02:34:19;2.10;;;0.90;;
4407;SDS011;2217;48.460;7.934;2022-11-20T02:36:46;2.10;;;0.90;;
4407;SDS011;2217;48.460;7.934;2022-11-20T02:39:13;2.10;;;0.90;;
4407;SDS011;2217;48.460;7.934;2022-11-20T02:41:43;2.10;;;0.90;;
4407;SDS011;2217;48.460;7.934;2022-11-20T02:44:10;2.10;;;0.90;;
4407;SDS011;2217;48.460;7.934;2022-11-20T02:46:37;2.10;;;0.90;;
4407;SDS011;2217;48.460;7.934;2022-11-20T02:49:04;2.10;;;0.90;;
4407;SDS011;2217;48.460;7.934;2022-11-20T02:51:32;2.10;;;0.90;;
4407;SDS011;2217;48.460;7.934;2022-11-20T02:53:59;2.10;;;0.90;;
4407;SDS011;2217;48.460;7.934;2022-11-20T03:16:17;2.10;;;0.90;;
4407;SDS011;2217;48.460;7.934;2022-11-20T03:18:44;2.10;;;0.90;;
4407;SDS011;2217;48.460;7.934;2022-11-20T03:21:12;2.10;;;0.90;;
4407;SDS011;2217;48.460;7.934;2022-11-20T03:23:40;2.10;;;0.90;;
4407;SDS011;2217;48.460;7.934;2022-11-20T03:26:11;2.10;;;0.87;;
4407;SDS011;2217;48.460;7.934;2022-11-20T03:28:38;2.10;;;1.00;;
4407;SDS011;2217;48.460;7.934;2022-11-20T03:31:09;2.10;;;0.90;;
4407;SDS011;2217;48.460;7.934;2022-11-20T03:33:38;2.10;;;0.90;;
4407;SDS011;2217;48.460;7.934;2022-11-20T03:36:06;2.10;;;0.90;;
4407;SDS011;2217;48.460;7.934;2022-11-20T03:38:33;2.10;;;0.90;;
4407;SDS011;2217;48.460;7.934;2022-11-20T03:41:01;2.10;;;1.00;;
4407;SDS011;2217;48.460;7.934;2022-11-20T03:43:29;2.10;;;0.90;;
4407;SDS011;2217;48.460;7.934;2022-11-20T03:45:56;2.13;;;0.90;;
4407;SDS011;2217;48.460;7.934;2022-11-20T03:48:23;2.10;;;0.90;;
4407;SDS011;2217;48.460;7.934;2022-11-20T03:50:52;2.10;;;0.90;;
4407;SDS011;2217;48.460;7.934;2022-11-20T03:53:19;2.10;;;0.80;;
4407;SDS011;2217;48.460;7.934;2022-11-20T03:55:50;2.10;;;0.90;;
4407;SDS011;2217;48.460;7.934;2022-11-20T03:58:17;2.10;;;0.90;;
4407;SDS011;2217;48.460;7.934;2022-11-20T04:00:44;2.10;;;0.90;;
4407;SDS011;2217;48.460;7.934;2022-11-20T04:03:11;2.10;;;0.90;;
4407;SDS011;2217;48.460;7.934;2022-11-20T04:05:39;2.10;;;0.90;;
4407;SDS011;2217;48.460;7.934;2022-11-20T04:08:07;2.10;;;0.90;;
4407;SDS011;2217;48.460;7.934;2022-11-20T04:10:34;2.10;;;0.90;;
4407;SDS011;2217;48.460;7.934;2022-11-20T04:13:02;2.13;;;0.90;;
4407;SDS011;2217;48.460;7.934;2022-11-20T04:15:29;2.17;;;0.90;;
4407;SDS011;2217;48.460;7.934;2022-11-20T04:17:56;2.13;;;0.90;;
4407;SDS011;2217;48.460;7.934;2022-11-20T04:20:24;2.10;;;0.90;;
4407;SDS011;2217;48.460;7.934;2022-11-20T04:22:52;2.20;;;1.00;;
4407;SDS011;2217;48.460;7.934;2022-11-20T04:25:22;2.10;;;0.80;;
4407;SDS011;2217;48.460;7.934;2022-11-20T04:27:49;2.20;;;1.00;;
4407;SDS011;2217;48.460;7.934;2022-11-20T04:30:16;2.10;;;0.90;;
4407;SDS011;2217;48.460;7.934;2022-11-20T04:32:43;2.20;;;0.90;;
4407;SDS011;2217;48.460;7.934;2022-11-20T04:35:10;2.20;;;1.00;;
4407;SDS011;2217;48.460;7.934;2022-11-20T04:37:37;2.20;;;1.00;;
4407;SDS011;2217;48.460;7.934;2022-11-20T04:40:05;2.10;;;0.90;;
4407;SDS011;2217;48.460;7.934;2022-11-20T04:42:33;2.10;;;0.90;;
4407;SDS011;2217;48.460;7.934;2022-11-20T04:45:01;2.20;;;0.90;;
4407;SDS011;2217;48.460;7.934;2022-11-20T04:47:28;2.13;;;0.90;;
4407;SDS011;2217;48.460;7.934;2022-11-20T04:49:55;2.20;;;0.90;;
4407;SDS011;2217;48.460;7.934;2022-11-20T04:52:22;2.20;;;0.90;;
4407;SDS011;2217;48.460;7.934;2022-11-20T04:54:49;2.20;;;0.90;;
4407;SDS011;2217;48.460;7.934;2022-11-20T04:57:18;2.17;;;0.90;;
4407;SDS011;2217;48.460;7.934;2022-11-20T04:59:47;2.10;;;0.90;;
4407;SDS011;2217;48.460;7.934;2022-11-20T05:02:14;2.13;;;0.90;;
4407;SDS011;2217;48.460;7.934;2022-11-20T05:04:41;2.17;;;0.90;;
4407;SDS011;2217;48.460;7.934;2022-11-20T05:07:08;2.20;;;1.00;;
4407;SDS011;2217;48.460;7.934;2022-11-20T05:09:35;2.10;;;0.90;;
4407;SDS011;2217;48.460;7.934;2022-11-20T05:12:02;2.10;;;0.90;;
4407;SDS011;2217;48.460;7.934;2022-11-20T05:14:30;2.10;;;0.90;;
4407;SDS011;2217;48.460;7.934;2022-11-20T05:16:58;2.10;;;0.90;;
4407;SDS011;2217;48.460;7.934;2022-11-20T05:19:25;2.10;;;0.90;;
4407;SDS011;2217;48.460;7.934;2022-11-20T05:21:52;2.10;;;0.90;;
4407;SDS011;2217;48.460;7.934;2022-11-20T05:24:19;2.20;;;1.00;;
4407;SDS011;2217;48.460;7.934;2022-11-20T05:26:47;2.10;;;0.90;;
4407;SDS011;2217;48.460;7.934;2022-11-20T05:29:14;2.10;;;0.90;;
4407;SDS011;2217;48.460;7.934;2022-11-20T05:31:41;2.10;;;0.90;;
4407;SDS011;2217;48.460;7.934;2022-11-20T05:34:09;2.10;;;0.90;;
4407;SDS011;2217;48.460;7.934;2022-11-20T05:36:37;2.10;;;0.90;;
4407;SDS011;2217;48.460;7.934;2022-11-20T05:39:04;2.10;;;0.90;;
4407;SDS011;2217;48.460;7.934;2022-11-20T05:41:32;2.10;;;0.90;;
4407;SDS011;2217;48.460;7.934;2022-11-20T05:43:59;2.10;;;0.90;;
4407;SDS011;2217;48.460;7.934;2022-11-20T05:46:27;2.10;;;0.90;;
4407;SDS011;2217;48.460;7.934;2022-11-20T05:48:54;2.10;;;0.90;;
4407;SDS011;2217;48.460;7.934;2022-11-20T05:51:23;2.10;;;0.90;;
4407;SDS011;2217;48.460;7.934;2022-11-20T05:53:50;2.10;;;0.90;;
4407;SDS011;2217;48.460;7.934;2022-11-20T05:56:18;2.10;;;0.90;;
4407;SDS011;2217;48.460;7.934;2022-11-20T05:58:45;2.10;;;0.90;;
4407;SDS011;2217;48.460;7.934;2022-11-20T06:01:13;2.10;;;0.90;;
4407;SDS011;2217;48.460;7.934;2022-11-20T06:03:41;2.10;;;0.90;;
4407;SDS011;2217;48.460;7.934;2022-11-20T06:06:11;2.10;;;0.90;;
4407;SDS011;2217;48.460;7.934;2022-11-20T06:08:40;2.10;;;0.90;;
4407;SDS011;2217;48.460;7.934;2022-11-20T06:11:08;2.10;;;0.90;;
4407;SDS011;2217;48.460;7.934;2022-11-20T06:13:35;2.10;;;0.90;;
4407;SDS011;2217;48.460;7.934;2022-11-20T06:16:03;2.10;;;0.90;;
4407;SDS011;2217;48.460;7.934;2022-11-20T06:18:30;2.10;;;0.80;;
4407;SDS011;2217;48.460;7.934;2022-11-20T06:21:02;2.10;;;0.90;;
4407;SDS011;2217;48.460;7.934;2022-11-20T06:23:29;2.10;;;0.90;;
4407;SDS011;2217;48.460;7.934;2022-11-20T06:25:58;2.10;;;0.90;;
4407;SDS011;2217;48.460;7.934;2022-11-20T06:28:27;2.10;;;0.90;;
4407;SDS011;2217;48.460;7.934;2022-11-20T06:30:54;2.10;;;0.90;;
4407;SDS011;2217;48.460;7.934;2022-11-20T06:33:21;2.10;;;1.00;;
4407;SDS011;2217;48.460;7.934;2022-11-20T06:35:48;2.10;;;0.90;;
4407;SDS011;2217;48.460;7.934;2022-11-20T06:38:16;2.10;;;0.90;;
4407;SDS011;2217;48.460;7.934;2022-11-20T06:40:44;2.10;;;0.93;;
4407;SDS011;2217;48.460;7.934;2022-11-20T06:43:21;2.10;;;0.90;;
4407;SDS011;2217;48.460;7.934;2022-11-20T06:45:51;2.10;;;0.90;;
4407;SDS011;2217;48.460;7.934;2022-11-20T06:48:19;2.10;;;1.00;;
4407;SDS011;2217;48.460;7.934;2022-11-20T06:50:46;2.10;;;0.90;;
4407;SDS011;2217;48.460;7.934;2022-11-20T06:53:13;2.20;;;1.10;;
4407;SDS011;2217;48.460;7.934;2022-11-20T06:55:42;2.10;;;0.80;;
4407;SDS011;2217;48.460;7.934;2022-11-20T06:58:09;2.13;;;0.93;;
4407;SDS011;2217;48.460;7.934;2022-11-20T07:00:38;2.10;;;0.90;;
4407;SDS011;2217;48.460;7.934;2022-11-20T07:03:05;2.10;;;0.90;;
4407;SDS011;2217;48.460;7.934;2022-11-20T07:05:32;2.10;;;0.90;;
4407;SDS011;2217;48.460;7.934;2022-11-20T07:08:00;2.10;;;0.93;;
4407;SDS011;2217;48.460;7.934;2022-11-20T07:10:32;2.20;;;1.00;;
4407;SDS011;2217;48.460;7.934;2022-11-20T07:12:59;2.10;;;0.93;;
4407;SDS011;2217;48.460;7.934;2022-11-20T07:15:27;2.10;;;0.90;;
4407;SDS011;2217;48.460;7.934;2022-11-20T07:17:55;2.13;;;0.90;;
4407;SDS011;2217;48.460;7.934;2022-11-20T07:20:25;2.10;;;0.90;;
4407;SDS011;2217;48.460;7.934;2022-11-20T07:22:59;2.13;;;0.90;;
4407;SDS011;2217;48.460;7.934;2022-11-20T07:25:27;2.10;;;0.90;;
4407;SDS011;2217;48.460;7.934;2022-11-20T07:27:56;2.13;;;0.90;;
4407;SDS011;2217;48.460;7.934;2022-11-20T07:30:23;2.13;;;0.90;;
4407;SDS011;2217;48.460;7.934;2022-11-20T07:32:51;2.10;;;0.90;;
4407;SDS011;2217;48.460;7.934;2022-11-20T07:35:20;2.17;;;0.90;;
4407;SDS011;2217;48.460;7.934;2022-11-20T07:37:47;2.20;;;0.90;;
4407;SDS011;2217;48.460;7.934;2022-11-20T07:40:15;2.17;;;0.90;;
4407;SDS011;2217;48.460;7.934;2022-11-20T07:42:46;2.10;;;0.90;;
4407;SDS011;2217;48.460;7.934;2022-11-20T07:45:15;2.10;;;0.83;;
4407;SDS011;2217;48.460;7.934;2022-11-20T07:47:42;2.10;;;0.90;;
4407;SDS011;2217;48.460;7.934;2022-11-20T07:50:09;2.20;;;0.90;;
4407;SDS011;2217;48.460;7.934;2022-11-20T07:52:38;2.10;;;0.90;;
4407;SDS011;2217;48.460;7.934;2022-11-20T07:55:05;2.10;;;0.90;;
4407;SDS011;2217;48.460;7.934;2022-11-20T07:57:33;2.13;;;0.93;;
4407;SDS011;2217;48.460;7.934;2022-11-20T08:00:00;2.17;;;1.00;;
4407;SDS011;2217;48.460;7.934;2022-11-20T08:02:27;2.10;;;0.87;;
4407;SDS011;2217;48.460;7.934;2022-11-20T08:04:54;2.10;;;0.87;;
4407;SDS011;2217;48.460;7.934;2022-11-20T08:07:21;2.10;;;0.90;;
4407;SDS011;2217;48.460;7.934;2022-11-20T08:09:50;2.10;;;0.90;;
4407;SDS011;2217;48.460;7.934;2022-11-20T08:12:17;2.10;;;0.90;;
4407;SDS011;2217;48.460;7.934;2022-11-20T08:15:03;2.10;;;0.90;;
4407;SDS011;2217;48.460;7.934;2022-11-20T08:17:30;2.10;;;1.00;;
4407;SDS011;2217;48.460;7.934;2022-11-20T08:19:57;2.10;;;0.90;;
4407;SDS011;2217;48.460;7.934;2022-11-20T08:22:24;2.10;;;0.87;;
4407;SDS011;2217;48.460;7.934;2022-11-20T08:24:53;2.10;;;0.90;;
4407;SDS011;2217;48.460;7.934;2022-11-20T08:27:20;2.10;;;0.90;;
4407;SDS011;2217;48.460;7.934;2022-11-20T08:29:48;2.10;;;0.90;;
4407;SDS011;2217;48.460;7.934;2022-11-20T08:32:15;2.10;;;0.90;;
4407;SDS011;2217;48.460;7.934;2022-11-20T08:34:42;2.10;;;0.90;;
4407;SDS011;2217;48.460;7.934;2022-11-20T08:37:09;2.10;;;0.80;;
4407;SDS011;2217;48.460;7.934;2022-11-20T08:39:37;2.10;;;0.90;;
4407;SDS011;2217;48.460;7.934;2022-11-20T08:42:14;2.10;;;0.90;;
4407;SDS011;2217;48.460;7.934;2022-11-20T08:44:41;2.10;;;0.90;;
4407;SDS011;2217;48.460;7.934;2022-11-20T08:47:09;2.10;;;0.90;;
4407;SDS011;2217;48.460;7.934;2022-11-20T08:49:36;2.10;;;0.90;;
4407;SDS011;2217;48.460;7.934;2022-11-20T08:52:03;2.10;;;0.90;;
4407;SDS011;2217;48.460;7.934;2022-11-20T08:54:30;2.10;;;0.90;;
4407;SDS011;2217;48.460;7.934;2022-11-20T08:56:57;2.10;;;0.90;;
4407;SDS011;2217;48.460;7.934;2022-11-20T08:59:26;2.10;;;0.90;;
4407;SDS011;2217;48.460;7.934;2022-11-20T09:01:53;2.10;;;0.90;;
4407;SDS011;2217;48.460;7.934;2022-11-20T09:04:20;2.10;;;0.90;;
4407;SDS011;2217;48.460;7.934;2022-11-20T09:06:48;2.10;;;0.90;;
4407;SDS011;2217;48.460;7.934;2022-11-20T09:09:16;2.10;;;0.90;;
4407;SDS011;2217;48.460;7.934;2022-11-20T09:11:43;2.10;;;0.80;;
4407;SDS011;2217;48.460;7.934;2022-11-20T09:14:11;2.10;;;0.90;;
4407;SDS011;2217;48.460;7.934;2022-11-20T09:16:40;2.10;;;0.90;;
4407;SDS011;2217;48.460;7.934;2022-11-20T09:19:07;2.10;;;0.90;;
4407;SDS011;2217;48.460;7.934;2022-11-20T09:21:34;2.10;;;0.80;;
4407;SDS011;2217;48.460;7.934;2022-11-20T09:24:02;2.10;;;0.90;;
4407;SDS011;2217;48.460;7.934;2022-11-20T09:26:29;2.10;;;0.90;;
4407;SDS011;2217;48.460;7.934;2022-11-20T09:28:56;2.10;;;0.90;;
4407;SDS011;2217;48.460;7.934;2022-11-20T09:31:24;2.10;;;0.90;;
4407;SDS011;2217;48.460;7.934;2022-11-20T09:33:53;2.10;;;0.90;;
4407;SDS011;2217;48.460;7.934;2022-11-20T09:36:20;2.10;;;0.90;;
4407;SDS011;2217;48.460;7.934;2022-11-20T09:38:47;2.10;;;0.90;;
4407;SDS011;2217;48.460;7.934;2022-11-20T09:41:24;2.10;;;0.90;;
4407;SDS011;2217;48.460;7.934;2022-11-20T09:43:56;2.10;;;0.90;;
4407;SDS011;2217;48.460;7.934;2022-11-20T09:46:27;2.10;;;0.90;;
4407;SDS011;2217;48.460;7.934;2022-11-20T09:49:00;2.10;;;0.90;;
4407;SDS011;2217;48.460;7.934;2022-11-20T09:51:34;2.10;;;0.90;;
4407;SDS011;2217;48.460;7.934;2022-11-20T09:54:17;2.10;;;0.90;;
4407;SDS011;2217;48.460;7.934;2022-11-20T09:56:45;2.10;;;0.90;;
4407;SDS011;2217;48.460;7.934;2022-11-20T09:59:18;2.10;;;0.90;;
4407;SDS011;2217;48.460;7.934;2022-11-20T10:01:47;2.10;;;0.90;;
4407;SDS011;2217;48.460;7.934;2022-11-20T10:04:16;2.10;;;0.90;;
4407;SDS011;2217;48.460;7.934;2022-11-20T10:06:44;2.20;;;0.90;;
4407;SDS011;2217;48.460;7.934;2022-11-20T10:09:16;2.20;;;0.90;;
4407;SDS011;2217;48.460;7.934;2022-11-20T10:11:46;2.20;;;0.80;;
4407;SDS011;2217;48.460;7.934;2022-11-20T10:14:21;2.20;;;0.90;;
4407;SDS011;2217;48.460;7.934;2022-11-20T10:16:52;2.20;;;0.90;;
4407;SDS011;2217;48.460;7.934;2022-11-20T10:19:32;2.23;;;0.90;;
4407;SDS011;2217;48.460;7.934;2022-11-20T10:22:05;2.30;;;0.90;;
4407;SDS011;2217;48.460;7.934;2022-11-20T10:24:48;2.30;;;0.83;;
4407;SDS011;2217;48.460;7.934;2022-11-20T10:27:24;2.30;;;0.90;;
4407;SDS011;2217;48.460;7.934;2022-11-20T10:29:58;2.30;;;0.90;;
4407;SDS011;2217;48.460;7.934;2022-11-20T10:32:28;2.30;;;0.90;;
4407;SDS011;2217;48.460;7.934;2022-11-20T10:34:59;2.30;;;1.00;;
4407;SDS011;2217;48.460;7.934;2022-11-20T10:37:27;2.30;;;0.90;;
4407;SDS011;2217;48.460;7.934;2022-11-20T10:39:56;2.30;;;0.90;;
4407;SDS011;2217;48.460;7.934;2022-11-20T10:42:26;2.30;;;0.90;;
4407;SDS011;2217;48.460;7.934;2022-11-20T10:44:58;2.30;;;0.90;;
4407;SDS011;2217;48.460;7.934;2022-11-20T10:47:28;2.30;;;0.90;;
4407;SDS011;2217;48.460;7.934;2022-11-20T10:50:01;2.30;;;0.90;;
4407;SDS011;2217;48.460;7.934;2022-11-20T10:52:30;2.30;;;0.90;;
4407;SDS011;2217;48.460;7.934;2022-11-20T10:55:04;2.30;;;0.90;;
4407;SDS011;2217;48.460;7.934;2022-11-20T10:57:36;2.30;;;0.90;;
4407;SDS011;2217;48.460;7.934;2022-11-20T11:00:05;2.30;;;0.90;;
4407;SDS011;2217;48.460;7.934;2022-11-20T11:02:34;2.40;;;0.87;;
4407;SDS011;2217;48.460;7.934;2022-11-20T11:05:07;2.40;;;1.00;;
4407;SDS011;2217;48.460;7.934;2022-11-20T11:07:37;2.40;;;0.90;;
4407;SDS011;2217;48.460;7.934;2022-11-20T11:10:13;2.50;;;0.80;;
4407;SDS011;2217;48.460;7.934;2022-11-20T11:12:47;2.50;;;0.90;;
4407;SDS011;2217;48.460;7.934;2022-11-20T11:15:14;2.50;;;0.90;;
4407;SDS011;2217;48.460;7.934;2022-11-20T11:17:51;2.50;;;0.90;;
4407;SDS011;2217;48.460;7.934;2022-11-20T11:20:21;2.50;;;0.90;;
4407;SDS011;2217;48.460;7.934;2022-11-20T11:22:49;2.50;;;0.90;;
4407;SDS011;2217;48.460;7.934;2022-11-20T11:25:20;2.50;;;0.80;;
4407;SDS011;2217;48.460;7.934;2022-11-20T11:27:48;2.50;;;1.00;;
4407;SDS011;2217;48.460;7.934;2022-11-20T11:30:16;2.50;;;0.90;;
4407;SDS011;2217;48.460;7.934;2022-11-20T11:32:45;2.50;;;0.90;;
4407;SDS011;2217;48.460;7.934;2022-11-20T11:35:19;2.50;;;0.90;;
4407;SDS011;2217;48.460;7.934;2022-11-20T11:37:48;2.50;;;0.90;;
4407;SDS011;2217;48.460;7.934;2022-11-20T11:40:17;2.50;;;0.90;;
4407;SDS011;2217;48.460;7.934;2022-11-20T11:42:46;2.53;;;0.90;;
4407;SDS011;2217;48.460;7.934;2022-11-20T11:45:15;2.50;;;0.90;;
4407;SDS011;2217;48.460;7.934;2022-11-20T11:47:43;2.57;;;0.90;;
4407;SDS011;2217;48.460;7.934;2022-11-20T11:50:15;2.57;;;1.00;;
4407;SDS011;2217;48.460;7.934;2022-11-20T11:52:43;2.50;;;0.90;;
4407;SDS011;2217;48.460;7.934;2022-11-20T11:55:14;2.57;;;0.90;;
4407;SDS011;2217;48.460;7.934;2022-11-20T11:57:43;2.53;;;0.90;;
4407;SDS011;2217;48.460;7.934;2022-11-20T12:00:14;2.60;;;0.90;;
4407;SDS011;2217;48.460;7.934;2022-11-20T12:02:46;2.60;;;0.90;;
4407;SDS011;2217;48.460;7.934;2022-11-20T12:05:17;2.60;;;0.90;;
4407;SDS011;2217;48.460;7.934;2022-11-20T12:07:45;2.60;;;0.90;;
4407;SDS011;2217;48.460;7.934;2022-11-20T12:10:18;2.70;;;0.90;;
4407;SDS011;2217;48.460;7.934;2022-11-20T12:12:48;2.70;;;0.90;;
4407;SDS011;2217;48.460;7.934;2022-11-20T12:15:20;2.70;;;0.90;;
4407;SDS011;2217;48.460;7.934;2022-11-20T12:17:49;2.70;;;0.90;;
4407;SDS011;2217;48.460;7.934;2022-11-20T12:20:16;2.70;;;0.90;;
4407;SDS011;2217;48.460;7.934;2022-11-20T12:22:46;2.70;;;0.90;;
4407;SDS011;2217;48.460;7.934;2022-11-20T12:25:17;2.70;;;0.90;;
4407;SDS011;2217;48.460;7.934;2022-11-20T12:28:03;2.70;;;0.90;;
4407;SDS011;2217;48.460;7.934;2022-11-20T12:30:46;2.70;;;0.80;;
4407;SDS011;2217;48.460;7.934;2022-11-20T12:33:18;2.77;;;0.90;;
4407;SDS011;2217;48.460;7.934;2022-11-20T12:36:06;2.80;;;1.00;;
4407;SDS011;2217;48.460;7.934;2022-11-20T12:41:19;2.80;;;1.00;;
4407;SDS011;2217;48.460;7.934;2022-11-20T12:44:07;2.77;;;0.90;;
4407;SDS011;2217;48.460;7.934;2022-11-20T12:46:53;2.70;;;0.83;;
4407;SDS011;2217;48.460;7.934;2022-11-20T12:49:26;2.70;;;0.90;;
4407;SDS011;2217;48.460;7.934;2022-11-20T12:51:58;2.73;;;0.90;;
4407;SDS011;2217;48.460;7.934;2022-11-20T12:54:34;2.77;;;1.00;;
4407;SDS011;2217;48.460;7.934;2022-11-20T12:57:06;2.70;;;0.90;;
4407;SDS011;2217;48.460;7.934;2022-11-20T12:59:46;2.70;;;0.90;;
4407;SDS011;2217;48.460;7.934;2022-11-20T13:02:18;2.70;;;0.90;;
4407;SDS011;2217;48.460;7.934;2022-11-20T13:04:58;2.70;;;0.90;;
4407;SDS011;2217;48.460;7.934;2022-11-20T13:07:26;2.70;;;0.90;;
4407;SDS011;2217;48.460;7.934;2022-11-20T13:09:55;2.70;;;0.90;;
4407;SDS011;2217;48.460;7.934;2022-11-20T13:12:23;2.70;;;0.90;;
4407;SDS011;2217;48.460;7.934;2022-11-20T13:14:53;2.70;;;0.90;;
4407;SDS011;2217;48.460;7.934;2022-11-20T13:17:24;2.70;;;0.90;;
4407;SDS011;2217;48.460;7.934;2022-11-20T13:19:52;2.70;;;1.00;;
4407;SDS011;2217;48.460;7.934;2022-11-20T13:22:24;2.67;;;0.80;;
4407;SDS011;2217;48.460;7.934;2022-11-20T13:24:51;2.70;;;0.90;;
4407;SDS011;2217;48.460;7.934;2022-11-20T13:27:19;2.73;;;0.90;;
4407;SDS011;2217;48.460;7.934;2022-11-20T13:30:00;2.70;;;0.90;;
4407;SDS011;2217;48.460;7.934;2022-11-20T13:32:27;2.70;;;0.90;;
4407;SDS011;2217;48.460;7.934;2022-11-20T13:34:58;2.70;;;0.90;;
4407;SDS011;2217;48.460;7.934;2022-11-20T13:37:27;2.70;;;0.90;;
4407;SDS011;2217;48.460;7.934;2022-11-20T13:40:04;2.70;;;0.90;;
4407;SDS011;2217;48.460;7.934;2022-11-20T13:42:31;2.70;;;0.90;;
4407;SDS011;2217;48.460;7.934;2022-11-20T13:45:08;2.70;;;0.90;;
4407;SDS011;2217;48.460;7.934;2022-11-20T13:47:35;2.73;;;0.90;;
4407;SDS011;2217;48.460;7.934;2022-11-20T13:50:03;2.70;;;0.90;;
4407;SDS011;2217;48.460;7.934;2022-11-20T13:52:36;2.73;;;0.90;;
4407;SDS011;2217;48.460;7.934;2022-11-20T13:55:11;2.70;;;0.90;;
4407;SDS011;2217;48.460;7.934;2022-11-20T13:57:46;2.73;;;0.90;;
4407;SDS011;2217;48.460;7.934;2022-11-20T14:00:18;2.70;;;0.90;;
4407;SDS011;2217;48.460;7.934;2022-11-20T14:02:49;2.70;;;0.90;;
4407;SDS011;2217;48.460;7.934;2022-11-20T14:05:19;2.70;;;0.90;;
4407;SDS011;2217;48.460;7.934;2022-11-20T14:07:47;2.73;;;0.90;;
4407;SDS011;2217;48.460;7.934;2022-11-20T14:10:19;2.77;;;0.90;;
4407;SDS011;2217;48.460;7.934;2022-11-20T14:12:47;2.70;;;0.90;;
4407;SDS011;2217;48.460;7.934;2022-11-20T14:15:25;2.70;;;0.90;;
4407;SDS011;2217;48.460;7.934;2022-11-20T14:17:52;2.67;;;0.80;;
4407;SDS011;2217;48.460;7.934;2022-11-20T14:20:20;2.70;;;0.90;;
4407;SDS011;2217;48.460;7.934;2022-11-20T14:22:50;2.70;;;0.90;;
4407;SDS011;2217;48.460;7.934;2022-11-20T14:25:18;2.70;;;0.90;;
4407;SDS011;2217;48.460;7.934;2022-11-20T14:27:50;2.70;;;0.90;;
4407;SDS011;2217;48.460;7.934;2022-11-20T14:30:18;2.70;;;0.90;;
4407;SDS011;2217;48.460;7.934;2022-11-20T14:32:47;2.70;;;0.90;;
4407;SDS011;2217;48.460;7.934;2022-11-20T14:35:18;2.67;;;0.90;;
4407;SDS011;2217;48.460;7.934;2022-11-20T14:37:46;2.70;;;0.90;;
4407;SDS011;2217;48.460;7.934;2022-11-20T14:40:21;2.67;;;0.90;;
4407;SDS011;2217;48.460;7.934;2022-11-20T14:42:49;2.70;;;0.90;;
4407;SDS011;2217;48.460;7.934;2022-11-20T14:45:16;2.63;;;1.00;;
4407;SDS011;2217;48.460;7.934;2022-11-20T14:47:43;2.60;;;0.90;;
4407;SDS011;2217;48.460;7.934;2022-11-20T14:50:14;2.60;;;0.90;;
4407;SDS011;2217;48.460;7.934;2022-11-20T14:52:49;2.60;;;0.90;;
4407;SDS011;2217;48.460;7.934;2022-11-20T14:55:25;2.60;;;0.90;;
4407;SDS011;2217;48.460;7.934;2022-11-20T14:57:54;2.63;;;1.00;;
4407;SDS011;2217;48.460;7.934;2022-11-20T15:00:22;2.60;;;0.90;;
4407;SDS011;2217;48.460;7.934;2022-11-20T15:02:50;2.60;;;0.90;;
4407;SDS011;2217;48.460;7.934;2022-11-20T15:05:19;2.60;;;0.90;;
4407;SDS011;2217;48.460;7.934;2022-11-20T15:07:48;2.60;;;0.90;;
4407;SDS011;2217;48.460;7.934;2022-11-20T15:10:20;2.60;;;0.90;;
4407;SDS011;2217;48.460;7.934;2022-11-20T15:12:48;2.60;;;0.90;;
4407;SDS011;2217;48.460;7.934;2022-11-20T15:15:17;2.60;;;0.90;;
4407;SDS011;2217;48.460;7.934;2022-11-20T15:17:46;2.57;;;0.90;;
4407;SDS011;2217;48.460;7.934;2022-11-20T15:20:14;2.60;;;0.90;;
4407;SDS011;2217;48.460;7.934;2022-11-20T15:22:43;2.57;;;1.00;;
4407;SDS011;2217;48.460;7.934;2022-11-20T15:25:13;2.60;;;0.90;;
4407;SDS011;2217;48.460;7.934;2022-11-20T15:27:42;2.57;;;0.90;;
4407;SDS011;2217;48.460;7.934;2022-11-20T15:30:12;2.50;;;1.00;;
4407;SDS011;2217;48.460;7.934;2022-11-20T15:32:40;2.60;;;1.00;;
4407;SDS011;2217;48.460;7.934;2022-11-20T15:35:07;2.50;;;0.90;;
4407;SDS011;2217;48.460;7.934;2022-11-20T15:37:34;2.50;;;0.80;;
4407;SDS011;2217;48.460;7.934;2022-11-20T15:40:04;2.50;;;0.90;;
4407;SDS011;2217;48.460;7.934;2022-11-20T15:42:31;2.50;;;1.00;;
4407;SDS011;2217;48.460;7.934;2022-11-20T15:44:58;2.50;;;0.90;;
4407;SDS011;2217;48.460;7.934;2022-11-20T15:47:27;2.50;;;0.90;;
4407;SDS011;2217;48.460;7.934;2022-11-20T15:49:56;2.50;;;0.90;;